EIN5XL LEAL-EIDW
Flight info
| Callsign | EIN5XL |
|---|---|
| Flight time | 2h 31m |
| Altitude | 38000 |
| Route | ASTRO L150 RBO N867 BLV N75 DELOG DCT IBISU DCT DOLUR DCT UPCAB DCT IJALA DCT EVRIN DCT BUNED BUNED4L |
| Aircraft | A21N/M-SDE2E3FGHIRWXY/LB1 |
Departure
| Time | 2026-05-07 13:07 |
|---|---|
| Airport | Alicante-Elche Miguel Hernández Airport (LEAL) |
Arrival
| Time | 2026-05-07 15:38 |
|---|---|
| Airport | Dublin Airport (EIDW) |
| Time | Latitude | Longitude | Altitude | Speed | Heading |
|---|---|---|---|---|---|
| 2026-05-07 12:17 | 38.28611 | -0.56002 | 111 ft | 0 kts | 5° |
| 2026-05-07 12:20 | 38.28610 | -0.56002 | 111 ft | 0 kts | 5° |
| 2026-05-07 12:57 | 38.28600 | -0.56003 | 111 ft | 2 kts | 5° |
| 2026-05-07 12:57 | 38.28578 | -0.56002 | 112 ft | 4 kts | 342° |
| 2026-05-07 12:57 | 38.28557 | -0.55985 | 111 ft | 4 kts | 304° |
| 2026-05-07 12:57 | 38.28548 | -0.55965 | 112 ft | 1 kts | 295° |
| 2026-05-07 12:58 | 38.28547 | -0.55962 | 112 ft | 1 kts | 295° |
| 2026-05-07 13:01 | 38.28548 | -0.55977 | 113 ft | 4 kts | 265° |
| 2026-05-07 13:01 | 38.28522 | -0.56012 | 114 ft | 8 kts | 205° |
| 2026-05-07 13:02 | 38.28452 | -0.56032 | 115 ft | 12 kts | 194° |
| 2026-05-07 13:02 | 38.28438 | -0.56143 | 115 ft | 16 kts | 282° |
| 2026-05-07 13:02 | 38.28461 | -0.56295 | 116 ft | 19 kts | 279° |
| 2026-05-07 13:02 | 38.28485 | -0.56471 | 119 ft | 22 kts | 279° |
| 2026-05-07 13:03 | 38.28512 | -0.56659 | 127 ft | 20 kts | 281° |
| 2026-05-07 13:03 | 38.28538 | -0.56842 | 134 ft | 22 kts | 279° |
| 2026-05-07 13:03 | 38.28565 | -0.57036 | 143 ft | 20 kts | 280° |
| 2026-05-07 13:03 | 38.28591 | -0.57219 | 151 ft | 22 kts | 280° |
| 2026-05-07 13:04 | 38.28619 | -0.57426 | 158 ft | 25 kts | 280° |
| 2026-05-07 13:04 | 38.28548 | -0.57516 | 163 ft | 9 kts | 187° |
| 2026-05-07 13:04 | 38.28515 | -0.57521 | 163 ft | 0 kts | 185° |
| 2026-05-07 13:06 | 38.28514 | -0.57521 | 163 ft | 1 kts | 185° |
| 2026-05-07 13:06 | 38.28494 | -0.57523 | 164 ft | 5 kts | 179° |
| 2026-05-07 13:06 | 38.28457 | -0.57498 | 163 ft | 8 kts | 122° |
| 2026-05-07 13:07 | 38.28443 | -0.57422 | 160 ft | 11 kts | 101° |
| 2026-05-07 13:07 | 38.28375 | -0.56932 | 138 ft | 103 kts | 99° |
| 2026-05-07 13:07 | 38.28205 | -0.55696 | 165 ft | 169 kts | 99° |
| 2026-05-07 13:07 | 38.27980 | -0.54255 | 1085 ft | 167 kts | 102° |
| 2026-05-07 13:08 | 38.27730 | -0.52778 | 1972 ft | 174 kts | 102° |
| 2026-05-07 13:08 | 38.27498 | -0.51196 | 2739 ft | 189 kts | 101° |
| 2026-05-07 13:08 | 38.27243 | -0.49486 | 3497 ft | 204 kts | 101° |
| 2026-05-07 13:08 | 38.26967 | -0.47639 | 4223 ft | 222 kts | 102° |
| 2026-05-07 13:09 | 38.26673 | -0.45673 | 5080 ft | 229 kts | 102° |
| 2026-05-07 13:09 | 38.26372 | -0.43668 | 6046 ft | 232 kts | 102° |
| 2026-05-07 13:09 | 38.26068 | -0.41639 | 7015 ft | 235 kts | 102° |
| 2026-05-07 13:09 | 38.25760 | -0.39578 | 7930 ft | 239 kts | 102° |
| 2026-05-07 13:10 | 38.25452 | -0.37510 | 8790 ft | 243 kts | 102° |
| 2026-05-07 13:10 | 38.25133 | -0.35387 | 9635 ft | 247 kts | 102° |
| 2026-05-07 13:10 | 38.24789 | -0.33228 | 10454 ft | 251 kts | 107° |
| 2026-05-07 13:10 | 38.24002 | -0.31247 | 11237 ft | 254 kts | 131° |
| 2026-05-07 13:11 | 38.22613 | -0.29809 | 11852 ft | 265 kts | 155° |
| 2026-05-07 13:11 | 38.20828 | -0.29229 | 12577 ft | 269 kts | 180° |
| 2026-05-07 13:11 | 38.18985 | -0.29648 | 13384 ft | 271 kts | 204° |
| 2026-05-07 13:11 | 38.17437 | -0.31010 | 14196 ft | 274 kts | 227° |
| 2026-05-07 13:12 | 38.16470 | -0.33086 | 15012 ft | 279 kts | 251° |
| 2026-05-07 13:12 | 38.16282 | -0.35549 | 15808 ft | 285 kts | 276° |
| 2026-05-07 13:12 | 38.16942 | -0.37940 | 16583 ft | 292 kts | 297° |
| 2026-05-07 13:12 | 38.18069 | -0.40111 | 17366 ft | 296 kts | 301° |
| 2026-05-07 13:13 | 38.19254 | -0.42272 | 18113 ft | 299 kts | 301° |
| 2026-05-07 13:13 | 38.20424 | -0.44471 | 18843 ft | 302 kts | 300° |
| 2026-05-07 13:13 | 38.21587 | -0.46717 | 19547 ft | 305 kts | 298° |
| 2026-05-07 13:13 | 38.22731 | -0.48961 | 20227 ft | 308 kts | 298° |
| 2026-05-07 13:14 | 38.23895 | -0.51261 | 20899 ft | 311 kts | 297° |
| 2026-05-07 13:14 | 38.25069 | -0.53589 | 21557 ft | 314 kts | 297° |
| 2026-05-07 13:14 | 38.26262 | -0.55932 | 22190 ft | 318 kts | 299° |
| 2026-05-07 13:14 | 38.27795 | -0.58035 | 22710 ft | 334 kts | 316° |
| 2026-05-07 13:15 | 38.29713 | -0.59821 | 23000 ft | 351 kts | 320° |
| 2026-05-07 13:15 | 38.31769 | -0.61625 | 23239 ft | 366 kts | 320° |
| 2026-05-07 13:15 | 38.33906 | -0.63511 | 23460 ft | 382 kts | 320° |
| 2026-05-07 13:15 | 38.36127 | -0.65487 | 23664 ft | 396 kts | 320° |
| 2026-05-07 13:16 | 38.38418 | -0.67559 | 23867 ft | 410 kts | 320° |
| 2026-05-07 13:16 | 38.40783 | -0.69708 | 24059 ft | 424 kts | 319° |
| 2026-05-07 13:16 | 38.43218 | -0.71931 | 24251 ft | 437 kts | 320° |
| 2026-05-07 13:16 | 38.44872 | -0.73441 | 24376 ft | 445 kts | 320° |
| 2026-05-07 13:17 | 38.47420 | -0.75764 | 24678 ft | 453 kts | 320° |
| 2026-05-07 13:17 | 38.50009 | -0.78105 | 25109 ft | 458 kts | 320° |
| 2026-05-07 13:17 | 38.52627 | -0.80469 | 25550 ft | 462 kts | 320° |
| 2026-05-07 13:17 | 38.56113 | -0.83649 | 26109 ft | 467 kts | 319° |
| 2026-05-07 13:18 | 38.57904 | -0.85291 | 26395 ft | 470 kts | 319° |
| 2026-05-07 13:18 | 38.60569 | -0.87729 | 26798 ft | 473 kts | 319° |
| 2026-05-07 13:18 | 38.63261 | -0.90188 | 27181 ft | 477 kts | 319° |
| 2026-05-07 13:18 | 38.65969 | -0.92669 | 27562 ft | 480 kts | 319° |
| 2026-05-07 13:19 | 38.68689 | -0.95159 | 27981 ft | 482 kts | 319° |
| 2026-05-07 13:19 | 38.71411 | -0.97658 | 28447 ft | 481 kts | 319° |
| 2026-05-07 13:19 | 38.74130 | -1.00158 | 28883 ft | 482 kts | 319° |
| 2026-05-07 13:19 | 38.76854 | -1.02667 | 29328 ft | 482 kts | 319° |
| 2026-05-07 13:20 | 38.79588 | -1.05180 | 29771 ft | 482 kts | 319° |
| 2026-05-07 13:20 | 38.82281 | -1.07653 | 30172 ft | 482 kts | 318° |
| 2026-05-07 13:20 | 38.85002 | -1.10164 | 30613 ft | 481 kts | 318° |
| 2026-05-07 13:20 | 38.87717 | -1.12676 | 31090 ft | 480 kts | 318° |
| 2026-05-07 13:21 | 38.90417 | -1.15174 | 31573 ft | 478 kts | 318° |
| 2026-05-07 13:21 | 38.93105 | -1.17664 | 32061 ft | 475 kts | 318° |
| 2026-05-07 13:21 | 38.95777 | -1.20147 | 32490 ft | 474 kts | 318° |
| 2026-05-07 13:21 | 38.98448 | -1.22617 | 32918 ft | 472 kts | 318° |
| 2026-05-07 13:22 | 39.01109 | -1.25078 | 33307 ft | 471 kts | 317° |
| 2026-05-07 13:22 | 39.03763 | -1.27541 | 33652 ft | 470 kts | 317° |
| 2026-05-07 13:22 | 39.06414 | -1.30009 | 34028 ft | 469 kts | 317° |
| 2026-05-07 13:22 | 39.09049 | -1.32475 | 34359 ft | 468 kts | 317° |
| 2026-05-07 13:23 | 39.11691 | -1.34936 | 34684 ft | 467 kts | 317° |
| 2026-05-07 13:23 | 39.14321 | -1.37379 | 34996 ft | 466 kts | 318° |
| 2026-05-07 13:23 | 39.16955 | -1.39832 | 35276 ft | 466 kts | 318° |
| 2026-05-07 13:23 | 39.19578 | -1.42281 | 35536 ft | 466 kts | 318° |
| 2026-05-07 13:24 | 39.22207 | -1.44741 | 35796 ft | 466 kts | 317° |
| 2026-05-07 13:24 | 39.24824 | -1.47198 | 36051 ft | 465 kts | 317° |
| 2026-05-07 13:24 | 39.27446 | -1.49659 | 36291 ft | 465 kts | 318° |
| 2026-05-07 13:24 | 39.30034 | -1.52077 | 36507 ft | 465 kts | 318° |
| 2026-05-07 13:25 | 39.32659 | -1.54536 | 36714 ft | 465 kts | 318° |
| 2026-05-07 13:25 | 39.35267 | -1.56990 | 37036 ft | 462 kts | 318° |
| 2026-05-07 13:25 | 39.37853 | -1.59423 | 37386 ft | 458 kts | 318° |
| 2026-05-07 13:25 | 39.40426 | -1.61842 | 37640 ft | 456 kts | 318° |
| 2026-05-07 13:26 | 39.42993 | -1.64257 | 37818 ft | 456 kts | 318° |
| 2026-05-07 13:26 | 39.45561 | -1.66681 | 37973 ft | 457 kts | 318° |
| 2026-05-07 13:26 | 39.50699 | -1.71529 | 37983 ft | 457 kts | 318° |
| 2026-05-07 13:27 | 39.55833 | -1.76391 | 37963 ft | 457 kts | 318° |
| 2026-05-07 13:27 | 39.60965 | -1.81259 | 37960 ft | 457 kts | 318° |
| 2026-05-07 13:28 | 39.66104 | -1.86135 | 37957 ft | 458 kts | 318° |
| 2026-05-07 13:28 | 39.71221 | -1.90999 | 37961 ft | 458 kts | 318° |
| 2026-05-07 13:29 | 39.76362 | -1.95895 | 37958 ft | 458 kts | 318° |
| 2026-05-07 13:29 | 39.81502 | -2.00805 | 37955 ft | 459 kts | 318° |
| 2026-05-07 13:30 | 39.86651 | -2.05733 | 37965 ft | 459 kts | 318° |
| 2026-05-07 13:30 | 39.91795 | -2.10652 | 37958 ft | 459 kts | 318° |
| 2026-05-07 13:31 | 39.96934 | -2.15603 | 37964 ft | 459 kts | 318° |
| 2026-05-07 13:31 | 40.02070 | -2.20545 | 37964 ft | 459 kts | 318° |
| 2026-05-07 13:32 | 40.07166 | -2.25459 | 37962 ft | 458 kts | 318° |
| 2026-05-07 13:32 | 40.12294 | -2.30413 | 37958 ft | 458 kts | 318° |
| 2026-05-07 13:33 | 40.17425 | -2.35376 | 37942 ft | 458 kts | 318° |
| 2026-05-07 13:33 | 40.22541 | -2.40338 | 37950 ft | 457 kts | 318° |
| 2026-05-07 13:34 | 40.30219 | -2.47747 | 37954 ft | 457 kts | 319° |
| 2026-05-07 13:35 | 40.35334 | -2.52686 | 37946 ft | 456 kts | 319° |
| 2026-05-07 13:35 | 40.39910 | -2.58257 | 37945 ft | 448 kts | 307° |
| 2026-05-07 13:36 | 40.44057 | -2.64360 | 37943 ft | 447 kts | 307° |
| 2026-05-07 13:36 | 40.48224 | -2.70432 | 37946 ft | 447 kts | 307° |
| 2026-05-07 13:37 | 40.52400 | -2.76497 | 37942 ft | 447 kts | 307° |
| 2026-05-07 13:37 | 40.56578 | -2.82557 | 37940 ft | 447 kts | 308° |
| 2026-05-07 13:38 | 40.60724 | -2.88575 | 37940 ft | 446 kts | 308° |
| 2026-05-07 13:38 | 40.64890 | -2.94652 | 37940 ft | 446 kts | 308° |
| 2026-05-07 13:39 | 40.69047 | -3.00723 | 37941 ft | 446 kts | 308° |
| 2026-05-07 13:39 | 40.73199 | -3.06799 | 37938 ft | 446 kts | 308° |
| 2026-05-07 13:40 | 40.77346 | -3.12881 | 37942 ft | 446 kts | 308° |
| 2026-05-07 13:40 | 40.81608 | -3.18819 | 37933 ft | 449 kts | 316° |
| 2026-05-07 13:40 | 40.84210 | -3.21156 | 37939 ft | 455 kts | 329° |
| 2026-05-07 13:41 | 40.87131 | -3.22675 | 37938 ft | 460 kts | 342° |
| 2026-05-07 13:41 | 40.90317 | -3.23305 | 37941 ft | 465 kts | 356° |
| 2026-05-07 13:41 | 40.93554 | -3.22985 | 37945 ft | 468 kts | 7° |
| 2026-05-07 13:42 | 40.99975 | -3.21427 | 37944 ft | 469 kts | 8° |
| 2026-05-07 13:42 | 41.06412 | -3.19944 | 37940 ft | 469 kts | 7° |
| 2026-05-07 13:43 | 41.12856 | -3.18519 | 37937 ft | 470 kts | 8° |
| 2026-05-07 13:43 | 41.19306 | -3.17070 | 37939 ft | 469 kts | 8° |
| 2026-05-07 13:44 | 41.25752 | -3.15609 | 37941 ft | 470 kts | 8° |
| 2026-05-07 13:44 | 41.32202 | -3.14152 | 37942 ft | 470 kts | 8° |
| 2026-05-07 13:45 | 41.38606 | -3.12692 | 37941 ft | 470 kts | 8° |
| 2026-05-07 13:45 | 41.45068 | -3.11233 | 37939 ft | 470 kts | 8° |
| 2026-05-07 13:46 | 41.51518 | -3.09764 | 37941 ft | 470 kts | 8° |
| 2026-05-07 13:46 | 41.57970 | -3.08302 | 37942 ft | 470 kts | 8° |
| 2026-05-07 13:47 | 41.64422 | -3.06841 | 37938 ft | 470 kts | 8° |
| 2026-05-07 13:47 | 41.70837 | -3.05381 | 37940 ft | 470 kts | 8° |
| 2026-05-07 13:48 | 41.77283 | -3.03907 | 37938 ft | 470 kts | 8° |
| 2026-05-07 13:48 | 41.83745 | -3.02419 | 37942 ft | 470 kts | 8° |
| 2026-05-07 13:49 | 41.90187 | -3.00921 | 37942 ft | 470 kts | 8° |
| 2026-05-07 13:49 | 41.96641 | -2.99437 | 37933 ft | 470 kts | 8° |
| 2026-05-07 13:50 | 42.03091 | -2.97943 | 37931 ft | 470 kts | 8° |
| 2026-05-07 13:50 | 42.09526 | -2.96446 | 37929 ft | 469 kts | 8° |
| 2026-05-07 13:51 | 42.15962 | -2.94949 | 37933 ft | 469 kts | 8° |
| 2026-05-07 13:51 | 42.22355 | -2.93462 | 37941 ft | 469 kts | 8° |
| 2026-05-07 13:52 | 42.28785 | -2.91954 | 37943 ft | 469 kts | 8° |
| 2026-05-07 13:52 | 42.35212 | -2.90451 | 37915 ft | 469 kts | 8° |
| 2026-05-07 13:53 | 42.41646 | -2.88943 | 37907 ft | 469 kts | 8° |
| 2026-05-07 13:53 | 42.48084 | -2.88184 | 37902 ft | 466 kts | 356° |
| 2026-05-07 13:54 | 42.54605 | -2.88518 | 37917 ft | 466 kts | 355° |
| 2026-05-07 13:54 | 42.61048 | -2.88867 | 37920 ft | 466 kts | 355° |
| 2026-05-07 13:55 | 42.67530 | -2.89211 | 37914 ft | 466 kts | 355° |
| 2026-05-07 13:55 | 42.74010 | -2.89544 | 37911 ft | 466 kts | 355° |
| 2026-05-07 13:56 | 42.80492 | -2.89890 | 37910 ft | 465 kts | 355° |
| 2026-05-07 13:56 | 42.86975 | -2.90230 | 37909 ft | 465 kts | 355° |
| 2026-05-07 13:57 | 42.93400 | -2.90572 | 37904 ft | 465 kts | 355° |
| 2026-05-07 13:57 | 42.99874 | -2.90914 | 37899 ft | 465 kts | 355° |
| 2026-05-07 13:58 | 43.06345 | -2.91249 | 37897 ft | 465 kts | 355° |
| 2026-05-07 13:58 | 43.12814 | -2.91594 | 37891 ft | 465 kts | 355° |
| 2026-05-07 13:59 | 43.19276 | -2.91933 | 37885 ft | 465 kts | 355° |
| 2026-05-07 13:59 | 43.25736 | -2.92301 | 37880 ft | 464 kts | 353° |
| 2026-05-07 13:59 | 43.28919 | -2.92970 | 37875 ft | 460 kts | 342° |
| 2026-05-07 14:00 | 43.31900 | -2.94469 | 37882 ft | 455 kts | 330° |
| 2026-05-07 14:00 | 43.37043 | -2.99307 | 37885 ft | 450 kts | 319° |
| 2026-05-07 14:01 | 43.42007 | -3.04555 | 37884 ft | 450 kts | 319° |
| 2026-05-07 14:01 | 43.46996 | -3.09752 | 37882 ft | 450 kts | 319° |
| 2026-05-07 14:02 | 43.51995 | -3.14944 | 37873 ft | 450 kts | 319° |
| 2026-05-07 14:02 | 43.56985 | -3.20161 | 37873 ft | 450 kts | 319° |
| 2026-05-07 14:03 | 43.61982 | -3.25373 | 37874 ft | 449 kts | 319° |
| 2026-05-07 14:03 | 43.66967 | -3.30580 | 37885 ft | 449 kts | 319° |
| 2026-05-07 14:04 | 43.71944 | -3.35733 | 37877 ft | 450 kts | 320° |
| 2026-05-07 14:04 | 43.76977 | -3.40860 | 37877 ft | 449 kts | 320° |
| 2026-05-07 14:05 | 43.81160 | -3.45135 | 37877 ft | 449 kts | 320° |
| 2026-05-07 14:05 | 43.86184 | -3.50291 | 37878 ft | 449 kts | 320° |
| 2026-05-07 14:06 | 43.91202 | -3.55455 | 37879 ft | 449 kts | 320° |
| 2026-05-07 14:06 | 43.96224 | -3.60621 | 37879 ft | 449 kts | 320° |
| 2026-05-07 14:07 | 44.01212 | -3.65761 | 37885 ft | 449 kts | 320° |
| 2026-05-07 14:07 | 44.06220 | -3.70947 | 37873 ft | 448 kts | 320° |
| 2026-05-07 14:08 | 44.11226 | -3.76145 | 37874 ft | 449 kts | 320° |
| 2026-05-07 14:08 | 44.16229 | -3.81356 | 37884 ft | 448 kts | 320° |
| 2026-05-07 14:09 | 44.21193 | -3.86530 | 37887 ft | 448 kts | 320° |
| 2026-05-07 14:09 | 44.26191 | -3.91757 | 37886 ft | 448 kts | 320° |
| 2026-05-07 14:10 | 44.31237 | -3.96893 | 37887 ft | 451 kts | 326° |
| 2026-05-07 14:10 | 44.34077 | -3.98794 | 37889 ft | 456 kts | 338° |
| 2026-05-07 14:10 | 44.37171 | -3.99846 | 37892 ft | 460 kts | 347° |
| 2026-05-07 14:11 | 44.43492 | -4.01209 | 37893 ft | 459 kts | 349° |
| 2026-05-07 14:11 | 44.49811 | -4.02582 | 37893 ft | 459 kts | 348° |
| 2026-05-07 14:12 | 44.56132 | -4.04011 | 37886 ft | 459 kts | 348° |
| 2026-05-07 14:12 | 44.62410 | -4.05433 | 37897 ft | 459 kts | 348° |
| 2026-05-07 14:13 | 44.68718 | -4.06855 | 37900 ft | 458 kts | 348° |
| 2026-05-07 14:13 | 44.75020 | -4.08287 | 37900 ft | 458 kts | 348° |
| 2026-05-07 14:14 | 44.81317 | -4.09726 | 37899 ft | 458 kts | 348° |
| 2026-05-07 14:14 | 44.87612 | -4.11170 | 37903 ft | 458 kts | 348° |
| 2026-05-07 14:15 | 44.93901 | -4.12608 | 37909 ft | 458 kts | 348° |
| 2026-05-07 14:15 | 45.00187 | -4.14054 | 37910 ft | 458 kts | 348° |
| 2026-05-07 14:16 | 45.06477 | -4.15499 | 37910 ft | 457 kts | 348° |
| 2026-05-07 14:16 | 45.12725 | -4.16935 | 37917 ft | 457 kts | 348° |
| 2026-05-07 14:17 | 45.18995 | -4.18388 | 37921 ft | 457 kts | 348° |
| 2026-05-07 14:17 | 45.25281 | -4.19834 | 37921 ft | 457 kts | 348° |
| 2026-05-07 14:18 | 45.31567 | -4.21283 | 37920 ft | 457 kts | 348° |
| 2026-05-07 14:18 | 45.37844 | -4.22748 | 37921 ft | 457 kts | 348° |
| 2026-05-07 14:19 | 45.44127 | -4.24209 | 37921 ft | 457 kts | 348° |
| 2026-05-07 14:19 | 45.50419 | -4.25672 | 37924 ft | 457 kts | 348° |
| 2026-05-07 14:20 | 45.56663 | -4.27131 | 37931 ft | 457 kts | 348° |
| 2026-05-07 14:20 | 45.62946 | -4.28613 | 37930 ft | 457 kts | 348° |
| 2026-05-07 14:21 | 45.69234 | -4.30095 | 37932 ft | 457 kts | 348° |
| 2026-05-07 14:21 | 45.75511 | -4.31576 | 37940 ft | 457 kts | 348° |
| 2026-05-07 14:22 | 45.81757 | -4.33048 | 37939 ft | 457 kts | 348° |
| 2026-05-07 14:22 | 45.88041 | -4.34529 | 37942 ft | 458 kts | 348° |
| 2026-05-07 14:23 | 45.94328 | -4.36019 | 37947 ft | 458 kts | 348° |
| 2026-05-07 14:23 | 46.00622 | -4.37512 | 37954 ft | 458 kts | 348° |
| 2026-05-07 14:24 | 46.06894 | -4.39007 | 37952 ft | 457 kts | 348° |
| 2026-05-07 14:24 | 46.13173 | -4.40510 | 37952 ft | 457 kts | 348° |
| 2026-05-07 14:25 | 46.19406 | -4.42001 | 37958 ft | 457 kts | 348° |
| 2026-05-07 14:25 | 46.25676 | -4.43507 | 37947 ft | 457 kts | 348° |
| 2026-05-07 14:26 | 46.31948 | -4.45019 | 37936 ft | 456 kts | 348° |
| 2026-05-07 14:26 | 46.38216 | -4.46535 | 37945 ft | 456 kts | 348° |
| 2026-05-07 14:27 | 46.44485 | -4.48046 | 37960 ft | 456 kts | 348° |
| 2026-05-07 14:27 | 46.50708 | -4.49553 | 37963 ft | 456 kts | 348° |
| 2026-05-07 14:28 | 46.56963 | -4.51070 | 37962 ft | 455 kts | 348° |
| 2026-05-07 14:28 | 46.63219 | -4.52590 | 37960 ft | 455 kts | 348° |
| 2026-05-07 14:29 | 46.69466 | -4.54114 | 37970 ft | 455 kts | 348° |
| 2026-05-07 14:29 | 46.75710 | -4.55636 | 37975 ft | 455 kts | 348° |
| 2026-05-07 14:30 | 46.81948 | -4.57164 | 37980 ft | 454 kts | 348° |
| 2026-05-07 14:30 | 46.88141 | -4.58690 | 37984 ft | 454 kts | 348° |
| 2026-05-07 14:31 | 46.94365 | -4.60223 | 37990 ft | 454 kts | 348° |
| 2026-05-07 14:31 | 47.00630 | -4.61769 | 37991 ft | 454 kts | 348° |
| 2026-05-07 14:32 | 47.06822 | -4.63300 | 37989 ft | 454 kts | 348° |
| 2026-05-07 14:32 | 47.13081 | -4.64545 | 37990 ft | 454 kts | 352° |
| 2026-05-07 14:33 | 47.19375 | -4.65590 | 37989 ft | 454 kts | 352° |
| 2026-05-07 14:33 | 47.25660 | -4.66640 | 37990 ft | 454 kts | 352° |
| 2026-05-07 14:34 | 47.31904 | -4.67691 | 37991 ft | 454 kts | 352° |
| 2026-05-07 14:34 | 47.38182 | -4.68748 | 37990 ft | 454 kts | 352° |
| 2026-05-07 14:35 | 47.44458 | -4.69808 | 37989 ft | 454 kts | 352° |
| 2026-05-07 14:35 | 47.50740 | -4.70876 | 37990 ft | 454 kts | 352° |
| 2026-05-07 14:36 | 47.57009 | -4.71938 | 37990 ft | 453 kts | 352° |
| 2026-05-07 14:36 | 47.63276 | -4.73007 | 37991 ft | 453 kts | 352° |
| 2026-05-07 14:37 | 47.69536 | -4.74073 | 37990 ft | 453 kts | 352° |
| 2026-05-07 14:37 | 47.78900 | -4.75673 | 37990 ft | 453 kts | 352° |
| 2026-05-07 14:38 | 47.85162 | -4.76750 | 37991 ft | 453 kts | 352° |
| 2026-05-07 14:38 | 47.91421 | -4.77827 | 37990 ft | 453 kts | 352° |
| 2026-05-07 14:39 | 47.97683 | -4.78907 | 37990 ft | 453 kts | 352° |
| 2026-05-07 14:39 | 48.03947 | -4.79991 | 37990 ft | 453 kts | 351° |
| 2026-05-07 14:40 | 48.10213 | -4.81075 | 37990 ft | 453 kts | 352° |
| 2026-05-07 14:40 | 48.16488 | -4.82166 | 37990 ft | 453 kts | 351° |
| 2026-05-07 14:41 | 48.22765 | -4.83302 | 37990 ft | 453 kts | 351° |
| 2026-05-07 14:41 | 48.28993 | -4.84401 | 37990 ft | 454 kts | 352° |
| 2026-05-07 14:42 | 48.35278 | -4.85460 | 37990 ft | 454 kts | 352° |
| 2026-05-07 14:42 | 48.41553 | -4.86544 | 37990 ft | 454 kts | 352° |
| 2026-05-07 14:43 | 48.47841 | -4.87644 | 37990 ft | 454 kts | 351° |
| 2026-05-07 14:43 | 48.54114 | -4.88757 | 37990 ft | 454 kts | 351° |
| 2026-05-07 14:44 | 48.60392 | -4.89882 | 37990 ft | 454 kts | 351° |
| 2026-05-07 14:44 | 48.66622 | -4.91015 | 37990 ft | 454 kts | 352° |
| 2026-05-07 14:45 | 48.72896 | -4.92132 | 37990 ft | 453 kts | 352° |
| 2026-05-07 14:45 | 48.79176 | -4.93221 | 37990 ft | 454 kts | 352° |
| 2026-05-07 14:46 | 48.85460 | -4.94325 | 38000 ft | 454 kts | 352° |
| 2026-05-07 14:46 | 48.91728 | -4.95448 | 38000 ft | 454 kts | 352° |
| 2026-05-07 14:47 | 48.97964 | -4.96579 | 38000 ft | 454 kts | 351° |
| 2026-05-07 14:47 | 49.04240 | -4.97738 | 38000 ft | 454 kts | 351° |
| 2026-05-07 14:48 | 49.10514 | -4.98864 | 38000 ft | 454 kts | 352° |
| 2026-05-07 14:48 | 49.16791 | -5.00006 | 38001 ft | 454 kts | 351° |
| 2026-05-07 14:49 | 49.23066 | -5.01146 | 38000 ft | 454 kts | 352° |
| 2026-05-07 14:49 | 49.29347 | -5.02281 | 38000 ft | 454 kts | 352° |
| 2026-05-07 14:50 | 49.35632 | -5.03416 | 38000 ft | 454 kts | 352° |
| 2026-05-07 14:50 | 49.41907 | -5.04554 | 38000 ft | 454 kts | 351° |
| 2026-05-07 14:51 | 49.48134 | -5.06135 | 37996 ft | 452 kts | 341° |
| 2026-05-07 14:51 | 49.50998 | -5.07927 | 37999 ft | 449 kts | 330° |
| 2026-05-07 14:51 | 49.53733 | -5.10242 | 38003 ft | 449 kts | 328° |
| 2026-05-07 14:52 | 49.59163 | -5.15002 | 38000 ft | 449 kts | 328° |
| 2026-05-07 14:52 | 49.64608 | -5.19725 | 38001 ft | 449 kts | 328° |
| 2026-05-07 14:53 | 49.69139 | -5.23662 | 38000 ft | 449 kts | 328° |
| 2026-05-07 14:53 | 49.74594 | -5.28420 | 37996 ft | 449 kts | 328° |
| 2026-05-07 14:54 | 49.80045 | -5.33181 | 37992 ft | 449 kts | 328° |
| 2026-05-07 14:54 | 49.85457 | -5.37924 | 37990 ft | 450 kts | 328° |
| 2026-05-07 14:55 | 49.90907 | -5.42710 | 37990 ft | 450 kts | 328° |
| 2026-05-07 14:55 | 49.96359 | -5.47512 | 37998 ft | 450 kts | 328° |
| 2026-05-07 14:56 | 50.01810 | -5.52326 | 38000 ft | 450 kts | 328° |
| 2026-05-07 14:56 | 50.07223 | -5.57118 | 37995 ft | 450 kts | 328° |
| 2026-05-07 14:57 | 50.12672 | -5.61964 | 37989 ft | 450 kts | 328° |
| 2026-05-07 14:57 | 50.18110 | -5.66824 | 37990 ft | 450 kts | 328° |
| 2026-05-07 14:58 | 50.23543 | -5.71692 | 37998 ft | 450 kts | 328° |
| 2026-05-07 14:58 | 50.28984 | -5.76558 | 38000 ft | 450 kts | 328° |
| 2026-05-07 14:59 | 50.34419 | -5.81432 | 38000 ft | 450 kts | 328° |
| 2026-05-07 14:59 | 50.39829 | -5.86287 | 38000 ft | 450 kts | 328° |
| 2026-05-07 15:00 | 50.45259 | -5.91190 | 38008 ft | 450 kts | 328° |
| 2026-05-07 15:00 | 50.50692 | -5.96118 | 38001 ft | 450 kts | 328° |
| 2026-05-07 15:01 | 50.56116 | -6.01042 | 38004 ft | 450 kts | 328° |
| 2026-05-07 15:01 | 50.61547 | -6.05976 | 38010 ft | 450 kts | 328° |
| 2026-05-07 15:02 | 50.66978 | -6.10911 | 38011 ft | 450 kts | 328° |
| 2026-05-07 15:02 | 50.72371 | -6.15811 | 38010 ft | 450 kts | 328° |
| 2026-05-07 15:03 | 50.77790 | -6.20775 | 38010 ft | 450 kts | 328° |
| 2026-05-07 15:03 | 50.83204 | -6.25751 | 38011 ft | 450 kts | 328° |
| 2026-05-07 15:04 | 50.88659 | -6.30644 | 38008 ft | 452 kts | 333° |
| 2026-05-07 15:04 | 50.91627 | -6.32313 | 38010 ft | 454 kts | 345° |
| 2026-05-07 15:04 | 50.94729 | -6.33312 | 38014 ft | 455 kts | 348° |
| 2026-05-07 15:05 | 51.00965 | -6.35081 | 38010 ft | 455 kts | 348° |
| 2026-05-07 15:05 | 51.07154 | -6.36909 | 38009 ft | 455 kts | 348° |
| 2026-05-07 15:06 | 51.13388 | -6.38743 | 38010 ft | 455 kts | 348° |
| 2026-05-07 15:06 | 51.19602 | -6.40614 | 38010 ft | 454 kts | 348° |
| 2026-05-07 15:07 | 51.25802 | -6.42451 | 38010 ft | 455 kts | 348° |
| 2026-05-07 15:07 | 51.32051 | -6.44149 | 38011 ft | 455 kts | 348° |
| 2026-05-07 15:08 | 51.38298 | -6.45779 | 37994 ft | 455 kts | 348° |
| 2026-05-07 15:08 | 51.44551 | -6.47421 | 37991 ft | 455 kts | 348° |
| 2026-05-07 15:09 | 51.50762 | -6.49051 | 37990 ft | 455 kts | 348° |
| 2026-05-07 15:09 | 51.57012 | -6.50701 | 37990 ft | 455 kts | 348° |
| 2026-05-07 15:10 | 51.63266 | -6.52357 | 37990 ft | 455 kts | 348° |
| 2026-05-07 15:10 | 51.69516 | -6.54013 | 37963 ft | 451 kts | 348° |
| 2026-05-07 15:11 | 51.72619 | -6.54840 | 37179 ft | 455 kts | 348° |
| 2026-05-07 15:11 | 51.75764 | -6.55682 | 36203 ft | 461 kts | 348° |
| 2026-05-07 15:11 | 51.78949 | -6.56375 | 35499 ft | 461 kts | 354° |
| 2026-05-07 15:11 | 51.82111 | -6.56654 | 34889 ft | 461 kts | 355° |
| 2026-05-07 15:12 | 51.85316 | -6.56907 | 34239 ft | 461 kts | 355° |
| 2026-05-07 15:12 | 51.88524 | -6.57157 | 33538 ft | 462 kts | 355° |
| 2026-05-07 15:12 | 51.91738 | -6.57409 | 32836 ft | 463 kts | 355° |
| 2026-05-07 15:12 | 51.94961 | -6.57659 | 32111 ft | 464 kts | 355° |
| 2026-05-07 15:13 | 51.98192 | -6.57909 | 31360 ft | 465 kts | 355° |
| 2026-05-07 15:13 | 52.01428 | -6.58162 | 30602 ft | 466 kts | 355° |
| 2026-05-07 15:13 | 52.04674 | -6.58422 | 29837 ft | 466 kts | 355° |
| 2026-05-07 15:13 | 52.07922 | -6.58679 | 29065 ft | 467 kts | 355° |
| 2026-05-07 15:14 | 52.11158 | -6.58933 | 28352 ft | 465 kts | 355° |
| 2026-05-07 15:14 | 52.14386 | -6.59190 | 27679 ft | 463 kts | 355° |
| 2026-05-07 15:14 | 52.17559 | -6.59444 | 27013 ft | 460 kts | 355° |
| 2026-05-07 15:14 | 52.20754 | -6.59697 | 26310 ft | 458 kts | 355° |
| 2026-05-07 15:15 | 52.23926 | -6.59951 | 25633 ft | 455 kts | 355° |
| 2026-05-07 15:15 | 52.27078 | -6.60205 | 24974 ft | 452 kts | 355° |
| 2026-05-07 15:15 | 52.30213 | -6.60454 | 24294 ft | 449 kts | 355° |
| 2026-05-07 15:15 | 52.33331 | -6.60701 | 23605 ft | 447 kts | 355° |
| 2026-05-07 15:16 | 52.36430 | -6.60947 | 22940 ft | 444 kts | 355° |
| 2026-05-07 15:16 | 52.39505 | -6.61193 | 22271 ft | 441 kts | 355° |
| 2026-05-07 15:16 | 52.42576 | -6.61436 | 21564 ft | 439 kts | 355° |
| 2026-05-07 15:16 | 52.45606 | -6.61677 | 20883 ft | 433 kts | 355° |
| 2026-05-07 15:17 | 52.48555 | -6.61912 | 20234 ft | 426 kts | 355° |
| 2026-05-07 15:17 | 52.51502 | -6.62149 | 19615 ft | 420 kts | 355° |
| 2026-05-07 15:17 | 52.54394 | -6.62380 | 19019 ft | 413 kts | 355° |
| 2026-05-07 15:17 | 52.57241 | -6.62609 | 18449 ft | 406 kts | 355° |
| 2026-05-07 15:18 | 52.60038 | -6.62836 | 17912 ft | 399 kts | 355° |
| 2026-05-07 15:18 | 52.62790 | -6.63058 | 17382 ft | 395 kts | 355° |
| 2026-05-07 15:18 | 52.65535 | -6.63281 | 16823 ft | 395 kts | 355° |
| 2026-05-07 15:18 | 52.68288 | -6.63508 | 16271 ft | 396 kts | 355° |
| 2026-05-07 15:19 | 52.71034 | -6.63733 | 15733 ft | 395 kts | 355° |
| 2026-05-07 15:19 | 52.73782 | -6.63957 | 15199 ft | 395 kts | 355° |
| 2026-05-07 15:19 | 52.76525 | -6.64180 | 14662 ft | 394 kts | 355° |
| 2026-05-07 15:19 | 52.79233 | -6.64401 | 14263 ft | 383 kts | 355° |
| 2026-05-07 15:20 | 52.81861 | -6.64617 | 13843 ft | 377 kts | 355° |
| 2026-05-07 15:20 | 52.84476 | -6.64829 | 13354 ft | 377 kts | 355° |
| 2026-05-07 15:20 | 52.87097 | -6.65044 | 12855 ft | 376 kts | 355° |
| 2026-05-07 15:20 | 52.89712 | -6.65259 | 12351 ft | 377 kts | 355° |
| 2026-05-07 15:21 | 52.92333 | -6.65475 | 11822 ft | 378 kts | 355° |
| 2026-05-07 15:21 | 52.94963 | -6.65694 | 11290 ft | 378 kts | 355° |
| 2026-05-07 15:21 | 52.97550 | -6.65872 | 10913 ft | 366 kts | 358° |
| 2026-05-07 15:21 | 52.99987 | -6.65247 | 10650 ft | 353 kts | 18° |
| 2026-05-07 15:22 | 53.02059 | -6.63295 | 10547 ft | 335 kts | 41° |
| 2026-05-07 15:22 | 53.03538 | -6.60449 | 10523 ft | 317 kts | 54° |
| 2026-05-07 15:22 | 53.04808 | -6.57555 | 10430 ft | 305 kts | 54° |
| 2026-05-07 15:22 | 53.06088 | -6.54712 | 9906 ft | 308 kts | 53° |
| 2026-05-07 15:23 | 53.07393 | -6.51926 | 9544 ft | 302 kts | 52° |
| 2026-05-07 15:23 | 53.08689 | -6.49246 | 9322 ft | 292 kts | 51° |
| 2026-05-07 15:23 | 53.10037 | -6.46814 | 9167 ft | 281 kts | 36° |
| 2026-05-07 15:23 | 53.11782 | -6.45619 | 9000 ft | 267 kts | 4° |
| 2026-05-07 15:24 | 53.13572 | -6.46027 | 8643 ft | 259 kts | 336° |
| 2026-05-07 15:24 | 53.15233 | -6.47161 | 8281 ft | 258 kts | 334° |
| 2026-05-07 15:24 | 53.16867 | -6.48305 | 7935 ft | 258 kts | 335° |
| 2026-05-07 15:24 | 53.18520 | -6.49428 | 7608 ft | 256 kts | 334° |
| 2026-05-07 15:25 | 53.20006 | -6.50963 | 7256 ft | 249 kts | 311° |
| 2026-05-07 15:25 | 53.20848 | -6.53389 | 6977 ft | 237 kts | 281° |
| 2026-05-07 15:25 | 53.20864 | -6.56071 | 6926 ft | 231 kts | 254° |
| 2026-05-07 15:25 | 53.20316 | -6.58581 | 6938 ft | 230 kts | 245° |
| 2026-05-07 15:26 | 53.19696 | -6.61043 | 6939 ft | 230 kts | 246° |
| 2026-05-07 15:26 | 53.19095 | -6.63519 | 6944 ft | 230 kts | 246° |
| 2026-05-07 15:26 | 53.18538 | -6.66027 | 6936 ft | 232 kts | 253° |
| 2026-05-07 15:26 | 53.18430 | -6.68706 | 6930 ft | 235 kts | 275° |
| 2026-05-07 15:27 | 53.18723 | -6.71399 | 6936 ft | 236 kts | 278° |
| 2026-05-07 15:27 | 53.19052 | -6.74090 | 6938 ft | 236 kts | 278° |
| 2026-05-07 15:27 | 53.19367 | -6.76777 | 6942 ft | 236 kts | 278° |
| 2026-05-07 15:27 | 53.19670 | -6.79465 | 6939 ft | 236 kts | 278° |
| 2026-05-07 15:28 | 53.20016 | -6.82148 | 6937 ft | 237 kts | 285° |
| 2026-05-07 15:28 | 53.20823 | -6.84526 | 6937 ft | 242 kts | 306° |
| 2026-05-07 15:28 | 53.21938 | -6.86631 | 6944 ft | 243 kts | 309° |
| 2026-05-07 15:28 | 53.23075 | -6.88718 | 6941 ft | 243 kts | 309° |
| 2026-05-07 15:29 | 53.24273 | -6.90712 | 6938 ft | 245 kts | 321° |
| 2026-05-07 15:29 | 53.25846 | -6.91803 | 6927 ft | 251 kts | 352° |
| 2026-05-07 15:29 | 53.27571 | -6.91387 | 6940 ft | 255 kts | 24° |
| 2026-05-07 15:29 | 53.28952 | -6.89564 | 6943 ft | 255 kts | 52° |
| 2026-05-07 15:30 | 53.29923 | -6.87094 | 6950 ft | 255 kts | 60° |
| 2026-05-07 15:30 | 53.30833 | -6.84553 | 6901 ft | 252 kts | 60° |
| 2026-05-07 15:30 | 53.31756 | -6.82035 | 6399 ft | 256 kts | 59° |
| 2026-05-07 15:30 | 53.32708 | -6.79515 | 5995 ft | 256 kts | 59° |
| 2026-05-07 15:31 | 53.33665 | -6.77014 | 5649 ft | 254 kts | 58° |
| 2026-05-07 15:31 | 53.34621 | -6.74545 | 5276 ft | 253 kts | 58° |
| 2026-05-07 15:31 | 53.35566 | -6.72112 | 5055 ft | 245 kts | 57° |
| 2026-05-07 15:31 | 53.36725 | -6.70014 | 4961 ft | 248 kts | 32° |
| 2026-05-07 15:32 | 53.38315 | -6.69083 | 4776 ft | 241 kts | 6° |
| 2026-05-07 15:32 | 53.39979 | -6.68857 | 4466 ft | 240 kts | 2° |
| 2026-05-07 15:32 | 53.41617 | -6.68683 | 4207 ft | 236 kts | 2° |
| 2026-05-07 15:32 | 53.43219 | -6.68473 | 4050 ft | 226 kts | 6° |
| 2026-05-07 15:33 | 53.44672 | -6.67801 | 4019 ft | 211 kts | 26° |
| 2026-05-07 15:33 | 53.45616 | -6.66091 | 3974 ft | 200 kts | 70° |
| 2026-05-07 15:33 | 53.45734 | -6.63838 | 3891 ft | 193 kts | 99° |
| 2026-05-07 15:33 | 53.45575 | -6.61609 | 3789 ft | 192 kts | 99° |
| 2026-05-07 15:34 | 53.45436 | -6.59381 | 3662 ft | 192 kts | 99° |
| 2026-05-07 15:34 | 53.45310 | -6.57154 | 3525 ft | 191 kts | 99° |
| 2026-05-07 15:34 | 53.45188 | -6.54942 | 3325 ft | 190 kts | 98° |
| 2026-05-07 15:34 | 53.45068 | -6.52739 | 3093 ft | 189 kts | 99° |
| 2026-05-07 15:35 | 53.44948 | -6.50549 | 2855 ft | 187 kts | 99° |
| 2026-05-07 15:35 | 53.44830 | -6.48400 | 2615 ft | 182 kts | 98° |
| 2026-05-07 15:35 | 53.44717 | -6.46336 | 2381 ft | 178 kts | 99° |
| 2026-05-07 15:35 | 53.44605 | -6.44297 | 2169 ft | 173 kts | 99° |
| 2026-05-07 15:36 | 53.44496 | -6.42317 | 1939 ft | 166 kts | 97° |
| 2026-05-07 15:36 | 53.44395 | -6.40456 | 1724 ft | 151 kts | 95° |
| 2026-05-07 15:36 | 53.44304 | -6.38810 | 1536 ft | 139 kts | 95° |
| 2026-05-07 15:36 | 53.44215 | -6.37191 | 1332 ft | 137 kts | 94° |
| 2026-05-07 15:37 | 53.44131 | -6.35659 | 1150 ft | 129 kts | 94° |
| 2026-05-07 15:37 | 53.44047 | -6.34124 | 990 ft | 134 kts | 94° |
| 2026-05-07 15:37 | 53.43961 | -6.32546 | 811 ft | 139 kts | 96° |
| 2026-05-07 15:37 | 53.43876 | -6.30931 | 627 ft | 139 kts | 98° |
| 2026-05-07 15:38 | 53.43792 | -6.29322 | 420 ft | 138 kts | 98° |
| 2026-05-07 15:38 | 53.43701 | -6.27747 | 264 ft | 137 kts | 97° |
| 2026-05-07 15:38 | 53.43614 | -6.26209 | 221 ft | 120 kts | 94° |
| 2026-05-07 15:38 | 53.43561 | -6.25365 | 215 ft | 22 kts | 102° |
| 2026-05-07 15:39 | 53.43549 | -6.25279 | 216 ft | 1 kts | 105° |
| 2026-05-07 15:39 | 53.43538 | -6.25242 | 216 ft | 8 kts | 119° |
| 2026-05-07 15:39 | 53.43511 | -6.25168 | 217 ft | 3 kts | 122° |
| 2026-05-07 15:39 | 53.43509 | -6.25164 | 217 ft | 0 kts | 124° |
| 2026-05-07 15:40 | 53.43507 | -6.25161 | 217 ft | 2 kts | 124° |
| 2026-05-07 15:40 | 53.43484 | -6.25101 | 221 ft | 8 kts | 120° |
| 2026-05-07 15:40 | 53.43460 | -6.25036 | 217 ft | 6 kts | 123° |
| 2026-05-07 15:40 | 53.43430 | -6.24991 | 217 ft | 6 kts | 155° |
| 2026-05-07 15:41 | 53.43380 | -6.25032 | 216 ft | 13 kts | 259° |
| 2026-05-07 15:41 | 53.43383 | -6.25106 | 216 ft | 0 kts | 274° |
| 2026-05-07 15:42 | 53.43383 | -6.25109 | 216 ft | 0 kts | 274° |
| 2026-05-07 15:42 | 53.43387 | -6.25200 | 224 ft | 14 kts | 275° |
| 2026-05-07 15:42 | 53.43396 | -6.25366 | 216 ft | 15 kts | 275° |
| 2026-05-07 15:43 | 53.43407 | -6.25546 | 216 ft | 16 kts | 276° |
| 2026-05-07 15:43 | 53.43338 | -6.25636 | 220 ft | 16 kts | 158° |
| 2026-05-07 15:43 | 53.43234 | -6.25564 | 216 ft | 17 kts | 156° |
| 2026-05-07 15:43 | 53.43126 | -6.25487 | 221 ft | 17 kts | 156° |
| 2026-05-07 15:44 | 53.43053 | -6.25432 | 221 ft | 17 kts | 156° |
| 2026-05-07 15:44 | 53.42941 | -6.25349 | 216 ft | 18 kts | 155° |
| 2026-05-07 15:44 | 53.42826 | -6.25266 | 216 ft | 18 kts | 156° |
| 2026-05-07 15:44 | 53.42720 | -6.25159 | 216 ft | 18 kts | 131° |
| 2026-05-07 15:45 | 53.42615 | -6.25043 | 219 ft | 18 kts | 157° |
| 2026-05-07 15:45 | 53.42553 | -6.25000 | 216 ft | 0 kts | 160° |
| 2026-05-07 15:49 | 53.42544 | -6.24994 | 216 ft | 8 kts | 151° |
| 2026-05-07 15:49 | 53.42451 | -6.24921 | 221 ft | 21 kts | 155° |
| 2026-05-07 15:49 | 53.42383 | -6.24855 | 216 ft | 11 kts | 137° |
| 2026-05-07 15:50 | 53.42346 | -6.24711 | 220 ft | 17 kts | 118° |
| 2026-05-07 15:50 | 53.42309 | -6.24637 | 216 ft | 0 kts | 130° |
| 2026-05-07 15:50 | 53.42299 | -6.24624 | 216 ft | 0 kts | 135° |